sensor_id;sensor_type;location;lat;lon;timestamp;temperature;humidity
16412;DHT22;8315;52.104;6.304;2023-02-02T00:00:46;7.20;98.40
16412;DHT22;8315;52.104;6.304;2023-02-02T00:03:13;7.20;98.40
16412;DHT22;8315;52.104;6.304;2023-02-02T00:05:43;7.20;98.40
16412;DHT22;8315;52.104;6.304;2023-02-02T00:08:11;7.20;98.40
16412;DHT22;8315;52.104;6.304;2023-02-02T00:10:39;7.10;98.40
16412;DHT22;8315;52.104;6.304;2023-02-02T00:13:06;7.10;98.40
16412;DHT22;8315;52.104;6.304;2023-02-02T00:15:33;7.10;98.40
16412;DHT22;8315;52.104;6.304;2023-02-02T00:17:59;7.10;98.40
16412;DHT22;8315;52.104;6.304;2023-02-02T00:20:26;7.10;98.40
16412;DHT22;8315;52.104;6.304;2023-02-02T00:22:53;7.10;98.40
16412;DHT22;8315;52.104;6.304;2023-02-02T00:25:20;7.10;98.40
16412;DHT22;8315;52.104;6.304;2023-02-02T00:27:48;7.20;98.40
16412;DHT22;8315;52.104;6.304;2023-02-02T00:30:15;7.10;98.40
16412;DHT22;8315;52.104;6.304;2023-02-02T00:32:42;7.10;98.40
16412;DHT22;8315;52.104;6.304;2023-02-02T00:35:12;7.10;98.40
16412;DHT22;8315;52.104;6.304;2023-02-02T00:37:39;7.10;98.40
16412;DHT22;8315;52.104;6.304;2023-02-02T00:40:07;7.10;98.40
16412;DHT22;8315;52.104;6.304;2023-02-02T00:42:35;7.10;98.40
16412;DHT22;8315;52.104;6.304;2023-02-02T00:45:03;7.20;98.40
16412;DHT22;8315;52.104;6.304;2023-02-02T00:47:44;7.10;98.40
16412;DHT22;8315;52.104;6.304;2023-02-02T00:50:12;7.10;98.40
16412;DHT22;8315;52.104;6.304;2023-02-02T00:52:40;7.10;98.40
16412;DHT22;8315;52.104;6.304;2023-02-02T00:55:08;7.20;98.40
16412;DHT22;8315;52.104;6.304;2023-02-02T00:57:35;7.10;98.40
16412;DHT22;8315;52.104;6.304;2023-02-02T01:00:04;7.20;98.40
16412;DHT22;8315;52.104;6.304;2023-02-02T01:02:32;7.20;98.40
16412;DHT22;8315;52.104;6.304;2023-02-02T01:04:59;7.20;98.40
16412;DHT22;8315;52.104;6.304;2023-02-02T01:07:26;7.20;98.40
16412;DHT22;8315;52.104;6.304;2023-02-02T01:09:55;7.20;98.40
16412;DHT22;8315;52.104;6.304;2023-02-02T01:12:22;7.20;98.40
16412;DHT22;8315;52.104;6.304;2023-02-02T01:14:49;7.30;98.40
16412;DHT22;8315;52.104;6.304;2023-02-02T01:17:17;7.30;98.40
16412;DHT22;8315;52.104;6.304;2023-02-02T01:19:44;7.30;98.40
16412;DHT22;8315;52.104;6.304;2023-02-02T01:22:11;7.30;98.40
16412;DHT22;8315;52.104;6.304;2023-02-02T01:24:38;7.30;98.40
16412;DHT22;8315;52.104;6.304;2023-02-02T01:27:05;7.30;98.40
16412;DHT22;8315;52.104;6.304;2023-02-02T01:29:31;7.30;98.40
16412;DHT22;8315;52.104;6.304;2023-02-02T01:31:58;7.30;98.40
16412;DHT22;8315;52.104;6.304;2023-02-02T01:34:26;7.30;98.40
16412;DHT22;8315;52.104;6.304;2023-02-02T01:36:53;7.30;98.40
16412;DHT22;8315;52.104;6.304;2023-02-02T01:39:20;7.30;98.40
16412;DHT22;8315;52.104;6.304;2023-02-02T01:41:47;7.30;98.40
16412;DHT22;8315;52.104;6.304;2023-02-02T01:47:19;7.30;98.40
16412;DHT22;8315;52.104;6.304;2023-02-02T01:49:49;7.30;98.40
16412;DHT22;8315;52.104;6.304;2023-02-02T01:52:16;7.30;98.40
16412;DHT22;8315;52.104;6.304;2023-02-02T01:54:46;7.30;98.40
16412;DHT22;8315;52.104;6.304;2023-02-02T01:57:16;7.30;98.40
16412;DHT22;8315;52.104;6.304;2023-02-02T01:59:45;7.30;98.40
16412;DHT22;8315;52.104;6.304;2023-02-02T02:02:13;7.40;98.40
16412;DHT22;8315;52.104;6.304;2023-02-02T02:04:40;7.40;98.40
16412;DHT22;8315;52.104;6.304;2023-02-02T02:07:09;7.40;98.40
16412;DHT22;8315;52.104;6.304;2023-02-02T02:09:36;7.40;98.40
16412;DHT22;8315;52.104;6.304;2023-02-02T02:12:08;7.40;98.40
16412;DHT22;8315;52.104;6.304;2023-02-02T02:14:39;7.40;98.40
16412;DHT22;8315;52.104;6.304;2023-02-02T02:17:39;7.50;98.40
16412;DHT22;8315;52.104;6.304;2023-02-02T02:20:17;7.50;98.40
16412;DHT22;8315;52.104;6.304;2023-02-02T02:26:45;7.40;98.40
16412;DHT22;8315;52.104;6.304;2023-02-02T02:32:27;7.40;98.40
16412;DHT22;8315;52.104;6.304;2023-02-02T02:35:00;7.50;98.40
16412;DHT22;8315;52.104;6.304;2023-02-02T02:37:32;7.50;98.40
16412;DHT22;8315;52.104;6.304;2023-02-02T02:40:05;7.50;98.40
16412;DHT22;8315;52.104;6.304;2023-02-02T02:42:39;7.40;98.40
16412;DHT22;8315;52.104;6.304;2023-02-02T02:45:10;7.40;98.40
16412;DHT22;8315;52.104;6.304;2023-02-02T02:47:39;7.40;98.40
16412;DHT22;8315;52.104;6.304;2023-02-02T02:50:07;7.40;98.40
16412;DHT22;8315;52.104;6.304;2023-02-02T02:52:35;7.40;98.40
16412;DHT22;8315;52.104;6.304;2023-02-02T02:55:03;7.40;98.40
16412;DHT22;8315;52.104;6.304;2023-02-02T02:57:40;7.40;98.40
16412;DHT22;8315;52.104;6.304;2023-02-02T03:00:17;7.40;98.40
16412;DHT22;8315;52.104;6.304;2023-02-02T03:02:52;7.40;98.40
16412;DHT22;8315;52.104;6.304;2023-02-02T03:05:25;7.40;98.40
16412;DHT22;8315;52.104;6.304;2023-02-02T03:08:00;7.40;98.40
16412;DHT22;8315;52.104;6.304;2023-02-02T03:10:31;7.30;98.40
16412;DHT22;8315;52.104;6.304;2023-02-02T03:12:58;7.30;98.40
16412;DHT22;8315;52.104;6.304;2023-02-02T03:15:25;7.30;98.40
16412;DHT22;8315;52.104;6.304;2023-02-02T03:17:53;7.30;98.40
16412;DHT22;8315;52.104;6.304;2023-02-02T03:20:20;7.30;98.40
16412;DHT22;8315;52.104;6.304;2023-02-02T03:22:47;7.30;98.40
16412;DHT22;8315;52.104;6.304;2023-02-02T03:25:14;7.30;98.40
16412;DHT22;8315;52.104;6.304;2023-02-02T03:27:41;7.30;98.40
16412;DHT22;8315;52.104;6.304;2023-02-02T03:30:08;7.30;98.40
16412;DHT22;8315;52.104;6.304;2023-02-02T03:32:37;7.30;98.40
16412;DHT22;8315;52.104;6.304;2023-02-02T03:35:06;7.30;98.40
16412;DHT22;8315;52.104;6.304;2023-02-02T03:37:33;7.30;98.40
16412;DHT22;8315;52.104;6.304;2023-02-02T03:40:00;7.40;98.40
16412;DHT22;8315;52.104;6.304;2023-02-02T03:42:27;7.30;98.40
16412;DHT22;8315;52.104;6.304;2023-02-02T03:44:54;7.30;98.40
16412;DHT22;8315;52.104;6.304;2023-02-02T03:47:21;7.40;98.40
16412;DHT22;8315;52.104;6.304;2023-02-02T03:49:47;7.40;98.40
16412;DHT22;8315;52.104;6.304;2023-02-02T03:52:15;7.30;98.40
16412;DHT22;8315;52.104;6.304;2023-02-02T03:54:43;7.30;98.40
16412;DHT22;8315;52.104;6.304;2023-02-02T03:57:09;7.30;98.40
16412;DHT22;8315;52.104;6.304;2023-02-02T03:59:36;7.40;98.40
16412;DHT22;8315;52.104;6.304;2023-02-02T04:02:03;7.40;98.40
16412;DHT22;8315;52.104;6.304;2023-02-02T04:04:30;7.30;98.40
16412;DHT22;8315;52.104;6.304;2023-02-02T04:06:56;7.30;98.40
16412;DHT22;8315;52.104;6.304;2023-02-02T04:09:25;7.30;98.40
16412;DHT22;8315;52.104;6.304;2023-02-02T04:11:52;7.30;98.40
16412;DHT22;8315;52.104;6.304;2023-02-02T04:14:19;7.30;98.40
16412;DHT22;8315;52.104;6.304;2023-02-02T04:16:45;7.30;98.40
16412;DHT22;8315;52.104;6.304;2023-02-02T04:19:12;7.30;98.40
16412;DHT22;8315;52.104;6.304;2023-02-02T04:21:39;7.30;98.40
16412;DHT22;8315;52.104;6.304;2023-02-02T04:24:08;7.40;98.40
16412;DHT22;8315;52.104;6.304;2023-02-02T04:26:37;7.40;98.40
16412;DHT22;8315;52.104;6.304;2023-02-02T04:29:04;7.40;98.40
16412;DHT22;8315;52.104;6.304;2023-02-02T04:31:31;7.40;98.40
16412;DHT22;8315;52.104;6.304;2023-02-02T04:33:58;7.50;98.40
16412;DHT22;8315;52.104;6.304;2023-02-02T04:36:26;7.50;98.40
16412;DHT22;8315;52.104;6.304;2023-02-02T04:38:53;7.50;98.40
16412;DHT22;8315;52.104;6.304;2023-02-02T04:41:22;7.50;98.40
16412;DHT22;8315;52.104;6.304;2023-02-02T04:43:51;7.50;98.40
16412;DHT22;8315;52.104;6.304;2023-02-02T04:46:18;7.60;98.40
16412;DHT22;8315;52.104;6.304;2023-02-02T04:48:46;7.60;98.40
16412;DHT22;8315;52.104;6.304;2023-02-02T04:51:13;7.60;98.40
16412;DHT22;8315;52.104;6.304;2023-02-02T04:53:41;7.60;98.40
16412;DHT22;8315;52.104;6.304;2023-02-02T04:56:08;7.60;98.40
16412;DHT22;8315;52.104;6.304;2023-02-02T04:58:41;7.60;98.40
16412;DHT22;8315;52.104;6.304;2023-02-02T05:01:10;7.60;98.40
16412;DHT22;8315;52.104;6.304;2023-02-02T05:03:38;7.60;98.40
16412;DHT22;8315;52.104;6.304;2023-02-02T05:06:05;7.70;98.40
16412;DHT22;8315;52.104;6.304;2023-02-02T05:08:32;7.70;98.40
16412;DHT22;8315;52.104;6.304;2023-02-02T05:10:59;7.70;98.40
16412;DHT22;8315;52.104;6.304;2023-02-02T05:13:26;7.70;98.40
16412;DHT22;8315;52.104;6.304;2023-02-02T05:15:53;7.70;98.40
16412;DHT22;8315;52.104;6.304;2023-02-02T05:18:22;7.70;98.40
16412;DHT22;8315;52.104;6.304;2023-02-02T05:20:49;7.70;98.40
16412;DHT22;8315;52.104;6.304;2023-02-02T05:23:16;7.80;98.40
16412;DHT22;8315;52.104;6.304;2023-02-02T05:25:43;7.80;98.40
16412;DHT22;8315;52.104;6.304;2023-02-02T05:28:10;7.80;98.40
16412;DHT22;8315;52.104;6.304;2023-02-02T05:30:37;7.80;98.40
16412;DHT22;8315;52.104;6.304;2023-02-02T05:33:04;7.80;98.40
16412;DHT22;8315;52.104;6.304;2023-02-02T05:35:32;7.80;98.40
16412;DHT22;8315;52.104;6.304;2023-02-02T05:37:59;7.80;98.40
16412;DHT22;8315;52.104;6.304;2023-02-02T05:40:26;7.90;98.40
16412;DHT22;8315;52.104;6.304;2023-02-02T05:42:53;7.90;98.40
16412;DHT22;8315;52.104;6.304;2023-02-02T05:45:20;7.90;98.40
16412;DHT22;8315;52.104;6.304;2023-02-02T05:47:46;7.90;98.40
16412;DHT22;8315;52.104;6.304;2023-02-02T05:50:13;7.90;98.40
16412;DHT22;8315;52.104;6.304;2023-02-02T05:52:43;7.90;98.40
16412;DHT22;8315;52.104;6.304;2023-02-02T05:55:11;7.90;98.40
16412;DHT22;8315;52.104;6.304;2023-02-02T05:57:37;7.90;98.40
16412;DHT22;8315;52.104;6.304;2023-02-02T06:00:05;7.90;98.40
16412;DHT22;8315;52.104;6.304;2023-02-02T06:02:37;7.90;98.40
16412;DHT22;8315;52.104;6.304;2023-02-02T06:05:05;7.90;98.40
16412;DHT22;8315;52.104;6.304;2023-02-02T06:07:32;7.90;98.40
16412;DHT22;8315;52.104;6.304;2023-02-02T06:10:00;8.00;98.40
16412;DHT22;8315;52.104;6.304;2023-02-02T06:12:27;7.90;98.40
16412;DHT22;8315;52.104;6.304;2023-02-02T06:14:54;8.00;98.40
16412;DHT22;8315;52.104;6.304;2023-02-02T06:17:21;7.90;98.40
16412;DHT22;8315;52.104;6.304;2023-02-02T06:19:48;7.90;98.40
16412;DHT22;8315;52.104;6.304;2023-02-02T06:22:14;8.00;98.40
16412;DHT22;8315;52.104;6.304;2023-02-02T06:24:41;8.00;98.40
16412;DHT22;8315;52.104;6.304;2023-02-02T06:27:09;8.00;98.40
16412;DHT22;8315;52.104;6.304;2023-02-02T06:29:36;8.00;98.40
16412;DHT22;8315;52.104;6.304;2023-02-02T06:32:03;8.10;98.40
16412;DHT22;8315;52.104;6.304;2023-02-02T06:34:30;8.00;98.40
16412;DHT22;8315;52.104;6.304;2023-02-02T06:36:56;8.00;98.40
16412;DHT22;8315;52.104;6.304;2023-02-02T06:39:23;8.00;98.40
16412;DHT22;8315;52.104;6.304;2023-02-02T06:41:50;8.00;98.40
16412;DHT22;8315;52.104;6.304;2023-02-02T06:44:18;8.00;98.40
16412;DHT22;8315;52.104;6.304;2023-02-02T06:46:45;8.00;98.40
16412;DHT22;8315;52.104;6.304;2023-02-02T06:49:12;8.00;98.40
16412;DHT22;8315;52.104;6.304;2023-02-02T06:51:39;8.00;98.40
16412;DHT22;8315;52.104;6.304;2023-02-02T06:54:06;8.00;98.40
16412;DHT22;8315;52.104;6.304;2023-02-02T06:56:33;8.00;98.40
16412;DHT22;8315;52.104;6.304;2023-02-02T06:58:59;8.00;98.40
16412;DHT22;8315;52.104;6.304;2023-02-02T07:01:28;8.00;98.40
16412;DHT22;8315;52.104;6.304;2023-02-02T07:03:54;8.00;98.40
16412;DHT22;8315;52.104;6.304;2023-02-02T07:06:22;8.00;98.40
16412;DHT22;8315;52.104;6.304;2023-02-02T07:08:50;8.00;98.40
16412;DHT22;8315;52.104;6.304;2023-02-02T07:11:17;8.00;98.40
16412;DHT22;8315;52.104;6.304;2023-02-02T07:13:44;8.00;98.40
16412;DHT22;8315;52.104;6.304;2023-02-02T07:16:11;8.00;98.40
16412;DHT22;8315;52.104;6.304;2023-02-02T07:18:39;8.00;98.40
16412;DHT22;8315;52.104;6.304;2023-02-02T07:21:08;8.00;98.40
16412;DHT22;8315;52.104;6.304;2023-02-02T07:23:41;8.00;98.40
16412;DHT22;8315;52.104;6.304;2023-02-02T07:26:08;8.00;98.40
16412;DHT22;8315;52.104;6.304;2023-02-02T07:28:36;8.10;98.40
16412;DHT22;8315;52.104;6.304;2023-02-02T07:31:11;8.10;98.40
16412;DHT22;8315;52.104;6.304;2023-02-02T07:33:41;8.00;98.40
16412;DHT22;8315;52.104;6.304;2023-02-02T07:36:08;8.00;98.40
16412;DHT22;8315;52.104;6.304;2023-02-02T07:38:35;8.00;98.40
16412;DHT22;8315;52.104;6.304;2023-02-02T07:41:02;8.00;98.40
16412;DHT22;8315;52.104;6.304;2023-02-02T07:43:29;8.00;98.40
16412;DHT22;8315;52.104;6.304;2023-02-02T07:45:57;8.00;98.40
16412;DHT22;8315;52.104;6.304;2023-02-02T07:48:26;8.10;98.40
16412;DHT22;8315;52.104;6.304;2023-02-02T07:50:54;8.00;98.40
16412;DHT22;8315;52.104;6.304;2023-02-02T07:53:24;8.10;98.40
16412;DHT22;8315;52.104;6.304;2023-02-02T07:55:50;8.00;98.40
16412;DHT22;8315;52.104;6.304;2023-02-02T07:58:17;8.00;98.40
16412;DHT22;8315;52.104;6.304;2023-02-02T08:00:44;8.10;98.40
16412;DHT22;8315;52.104;6.304;2023-02-02T08:03:11;8.00;98.40
16412;DHT22;8315;52.104;6.304;2023-02-02T08:05:38;8.00;98.40
16412;DHT22;8315;52.104;6.304;2023-02-02T08:08:06;8.00;98.40
16412;DHT22;8315;52.104;6.304;2023-02-02T08:10:33;8.00;98.40
16412;DHT22;8315;52.104;6.304;2023-02-02T08:12:59;8.00;98.40
16412;DHT22;8315;52.104;6.304;2023-02-02T08:15:26;8.00;98.40
16412;DHT22;8315;52.104;6.304;2023-02-02T08:17:53;8.00;98.40
16412;DHT22;8315;52.104;6.304;2023-02-02T08:20:20;8.00;98.40
16412;DHT22;8315;52.104;6.304;2023-02-02T08:22:47;8.10;98.40
16412;DHT22;8315;52.104;6.304;2023-02-02T08:25:15;8.00;98.40
16412;DHT22;8315;52.104;6.304;2023-02-02T08:27:42;8.10;98.40
16412;DHT22;8315;52.104;6.304;2023-02-02T08:30:09;8.10;98.40
16412;DHT22;8315;52.104;6.304;2023-02-02T08:32:37;8.00;98.40
16412;DHT22;8315;52.104;6.304;2023-02-02T08:35:05;8.00;98.40
16412;DHT22;8315;52.104;6.304;2023-02-02T08:37:32;8.10;98.40
16412;DHT22;8315;52.104;6.304;2023-02-02T08:39:59;8.10;98.40
16412;DHT22;8315;52.104;6.304;2023-02-02T08:42:27;8.10;98.40
16412;DHT22;8315;52.104;6.304;2023-02-02T08:44:54;8.10;98.40
16412;DHT22;8315;52.104;6.304;2023-02-02T08:47:20;8.10;98.40
16412;DHT22;8315;52.104;6.304;2023-02-02T08:49:47;8.10;98.40
16412;DHT22;8315;52.104;6.304;2023-02-02T08:52:14;8.10;98.40
16412;DHT22;8315;52.104;6.304;2023-02-02T08:54:41;8.10;98.40
16412;DHT22;8315;52.104;6.304;2023-02-02T08:57:07;8.10;98.40
16412;DHT22;8315;52.104;6.304;2023-02-02T08:59:36;8.10;98.40
16412;DHT22;8315;52.104;6.304;2023-02-02T09:02:02;8.10;98.40
16412;DHT22;8315;52.104;6.304;2023-02-02T09:04:29;8.10;98.40
16412;DHT22;8315;52.104;6.304;2023-02-02T09:06:56;8.20;98.40
16412;DHT22;8315;52.104;6.304;2023-02-02T09:09:23;8.20;98.40
16412;DHT22;8315;52.104;6.304;2023-02-02T09:11:49;8.20;98.40
16412;DHT22;8315;52.104;6.304;2023-02-02T09:14:16;8.20;98.40
16412;DHT22;8315;52.104;6.304;2023-02-02T09:16:44;8.20;98.40
16412;DHT22;8315;52.104;6.304;2023-02-02T09:19:11;8.20;98.40
16412;DHT22;8315;52.104;6.304;2023-02-02T09:21:38;8.20;98.40
16412;DHT22;8315;52.104;6.304;2023-02-02T09:24:06;8.20;98.40
16412;DHT22;8315;52.104;6.304;2023-02-02T09:26:33;8.20;98.40
16412;DHT22;8315;52.104;6.304;2023-02-02T09:29:01;8.20;98.40
16412;DHT22;8315;52.104;6.304;2023-02-02T09:31:29;8.20;98.40
16412;DHT22;8315;52.104;6.304;2023-02-02T09:34:00;8.30;98.40
16412;DHT22;8315;52.104;6.304;2023-02-02T09:36:28;8.20;98.40
16412;DHT22;8315;52.104;6.304;2023-02-02T09:38:55;8.20;98.40
16412;DHT22;8315;52.104;6.304;2023-02-02T09:44:17;8.30;98.40
16412;DHT22;8315;52.104;6.304;2023-02-02T09:46:51;8.30;98.40
16412;DHT22;8315;52.104;6.304;2023-02-02T09:49:26;8.30;98.40
16412;DHT22;8315;52.104;6.304;2023-02-02T09:51:58;8.30;98.40
16412;DHT22;8315;52.104;6.304;2023-02-02T09:54:29;8.30;98.40
16412;DHT22;8315;52.104;6.304;2023-02-02T09:56:58;8.30;98.40
16412;DHT22;8315;52.104;6.304;2023-02-02T09:59:28;8.30;98.40
16412;DHT22;8315;52.104;6.304;2023-02-02T10:02:01;8.30;98.40
16412;DHT22;8315;52.104;6.304;2023-02-02T10:04:30;8.30;98.40
16412;DHT22;8315;52.104;6.304;2023-02-02T10:07:03;8.30;98.40
16412;DHT22;8315;52.104;6.304;2023-02-02T10:09:34;8.30;98.40
16412;DHT22;8315;52.104;6.304;2023-02-02T10:12:05;8.40;98.40
16412;DHT22;8315;52.104;6.304;2023-02-02T10:14:43;8.40;98.40
16412;DHT22;8315;52.104;6.304;2023-02-02T10:17:24;8.40;98.40
16412;DHT22;8315;52.104;6.304;2023-02-02T10:19:59;8.40;98.40
16412;DHT22;8315;52.104;6.304;2023-02-02T10:22:29;8.40;98.40
16412;DHT22;8315;52.104;6.304;2023-02-02T10:24:58;8.40;98.40
16412;DHT22;8315;52.104;6.304;2023-02-02T10:27:28;8.50;98.40
16412;DHT22;8315;52.104;6.304;2023-02-02T10:30:02;8.50;98.40
16412;DHT22;8315;52.104;6.304;2023-02-02T10:32:32;8.50;98.40
16412;DHT22;8315;52.104;6.304;2023-02-02T10:35:09;8.50;98.40
16412;DHT22;8315;52.104;6.304;2023-02-02T10:37:46;8.50;98.40
16412;DHT22;8315;52.104;6.304;2023-02-02T10:40:16;8.50;98.40
16412;DHT22;8315;52.104;6.304;2023-02-02T10:42:53;8.50;98.40
16412;DHT22;8315;52.104;6.304;2023-02-02T10:45:43;8.50;98.40
16412;DHT22;8315;52.104;6.304;2023-02-02T10:48:13;8.50;98.40
16412;DHT22;8315;52.104;6.304;2023-02-02T10:50:44;8.50;98.40
16412;DHT22;8315;52.104;6.304;2023-02-02T10:53:14;8.50;98.40
16412;DHT22;8315;52.104;6.304;2023-02-02T10:55:42;8.50;98.40
16412;DHT22;8315;52.104;6.304;2023-02-02T10:58:16;8.40;98.40
16412;DHT22;8315;52.104;6.304;2023-02-02T11:00:47;8.50;98.40
16412;DHT22;8315;52.104;6.304;2023-02-02T11:03:17;8.50;98.40
16412;DHT22;8315;52.104;6.304;2023-02-02T11:05:48;8.50;98.40
16412;DHT22;8315;52.104;6.304;2023-02-02T11:08:32;8.50;98.40
16412;DHT22;8315;52.104;6.304;2023-02-02T11:11:07;8.50;98.40
16412;DHT22;8315;52.104;6.304;2023-02-02T11:13:37;8.50;98.40
16412;DHT22;8315;52.104;6.304;2023-02-02T11:18:51;8.50;98.40
16412;DHT22;8315;52.104;6.304;2023-02-02T11:21:20;8.60;98.40
16412;DHT22;8315;52.104;6.304;2023-02-02T11:23:52;8.60;98.40
16412;DHT22;8315;52.104;6.304;2023-02-02T11:26:21;8.60;98.40
16412;DHT22;8315;52.104;6.304;2023-02-02T11:28:48;8.60;98.40
16412;DHT22;8315;52.104;6.304;2023-02-02T11:31:30;8.60;98.40
16412;DHT22;8315;52.104;6.304;2023-02-02T11:34:07;8.60;98.40
16412;DHT22;8315;52.104;6.304;2023-02-02T11:36:37;8.70;98.40
16412;DHT22;8315;52.104;6.304;2023-02-02T11:39:14;8.80;98.40
16412;DHT22;8315;52.104;6.304;2023-02-02T11:41:41;8.80;98.40
16412;DHT22;8315;52.104;6.304;2023-02-02T11:44:11;8.80;98.40
16412;DHT22;8315;52.104;6.304;2023-02-02T11:46:45;8.80;98.40
16412;DHT22;8315;52.104;6.304;2023-02-02T11:49:14;8.80;98.40
16412;DHT22;8315;52.104;6.304;2023-02-02T11:51:44;8.70;98.40
16412;DHT22;8315;52.104;6.304;2023-02-02T11:54:22;8.80;98.40
16412;DHT22;8315;52.104;6.304;2023-02-02T11:56:53;8.70;98.40
16412;DHT22;8315;52.104;6.304;2023-02-02T11:59:29;8.70;98.40
16412;DHT22;8315;52.104;6.304;2023-02-02T12:04:49;8.70;98.40
16412;DHT22;8315;52.104;6.304;2023-02-02T12:07:20;8.60;98.40
16412;DHT22;8315;52.104;6.304;2023-02-02T12:09:50;8.60;98.40
16412;DHT22;8315;52.104;6.304;2023-02-02T12:12:22;8.70;98.40
16412;DHT22;8315;52.104;6.304;2023-02-02T12:15:02;8.70;98.40
16412;DHT22;8315;52.104;6.304;2023-02-02T12:17:35;8.60;98.40
16412;DHT22;8315;52.104;6.304;2023-02-02T12:20:08;8.60;98.40
16412;DHT22;8315;52.104;6.304;2023-02-02T12:23:02;8.70;98.40
16412;DHT22;8315;52.104;6.304;2023-02-02T12:25:53;8.70;98.40
16412;DHT22;8315;52.104;6.304;2023-02-02T12:28:29;8.70;98.40
16412;DHT22;8315;52.104;6.304;2023-02-02T12:31:05;8.70;98.40
16412;DHT22;8315;52.104;6.304;2023-02-02T12:33:38;8.70;98.40
16412;DHT22;8315;52.104;6.304;2023-02-02T12:36:17;8.70;98.40
16412;DHT22;8315;52.104;6.304;2023-02-02T12:39:02;8.70;98.40
16412;DHT22;8315;52.104;6.304;2023-02-02T12:44:49;8.70;98.40
16412;DHT22;8315;52.104;6.304;2023-02-02T12:47:26;8.80;98.40
16412;DHT22;8315;52.104;6.304;2023-02-02T12:49:59;8.80;98.40
16412;DHT22;8315;52.104;6.304;2023-02-02T12:52:34;8.80;98.40
16412;DHT22;8315;52.104;6.304;2023-02-02T12:55:14;8.80;98.40
16412;DHT22;8315;52.104;6.304;2023-02-02T12:57:49;8.80;98.40
16412;DHT22;8315;52.104;6.304;2023-02-02T13:00:24;8.90;98.40
16412;DHT22;8315;52.104;6.304;2023-02-02T13:03:01;8.80;98.40
16412;DHT22;8315;52.104;6.304;2023-02-02T13:05:41;8.80;98.40
16412;DHT22;8315;52.104;6.304;2023-02-02T13:08:19;8.80;98.40
16412;DHT22;8315;52.104;6.304;2023-02-02T13:10:50;8.80;98.40
16412;DHT22;8315;52.104;6.304;2023-02-02T13:13:19;8.90;98.40
16412;DHT22;8315;52.104;6.304;2023-02-02T13:15:51;8.80;98.40
16412;DHT22;8315;52.104;6.304;2023-02-02T13:18:22;8.80;98.40
16412;DHT22;8315;52.104;6.304;2023-02-02T13:20:50;8.80;98.40
16412;DHT22;8315;52.104;6.304;2023-02-02T13:23:19;8.80;98.40
16412;DHT22;8315;52.104;6.304;2023-02-02T13:25:50;8.80;98.40
16412;DHT22;8315;52.104;6.304;2023-02-02T13:28:24;8.90;98.40
16412;DHT22;8315;52.104;6.304;2023-02-02T13:31:00;8.80;98.40
16412;DHT22;8315;52.104;6.304;2023-02-02T13:33:28;8.80;98.40
16412;DHT22;8315;52.104;6.304;2023-02-02T13:35:59;8.80;98.40
16412;DHT22;8315;52.104;6.304;2023-02-02T13:38:27;8.80;98.40
16412;DHT22;8315;52.104;6.304;2023-02-02T13:40:55;8.80;98.40
16412;DHT22;8315;52.104;6.304;2023-02-02T13:43:27;8.80;98.40
16412;DHT22;8315;52.104;6.304;2023-02-02T13:46:03;8.80;98.40
16412;DHT22;8315;52.104;6.304;2023-02-02T13:48:38;8.80;98.40
16412;DHT22;8315;52.104;6.304;2023-02-02T13:51:22;8.70;98.40
16412;DHT22;8315;52.104;6.304;2023-02-02T13:54:02;8.70;98.40
16412;DHT22;8315;52.104;6.304;2023-02-02T13:56:42;8.70;98.40
16412;DHT22;8315;52.104;6.304;2023-02-02T13:59:29;8.80;98.40
16412;DHT22;8315;52.104;6.304;2023-02-02T14:02:08;8.70;98.40
16412;DHT22;8315;52.104;6.304;2023-02-02T14:04:50;8.70;98.40
16412;DHT22;8315;52.104;6.304;2023-02-02T14:07:24;8.70;98.40
16412;DHT22;8315;52.104;6.304;2023-02-02T14:09:52;8.70;98.40
16412;DHT22;8315;52.104;6.304;2023-02-02T14:12:29;8.70;98.40
16412;DHT22;8315;52.104;6.304;2023-02-02T14:14:58;8.70;98.40
16412;DHT22;8315;52.104;6.304;2023-02-02T14:20:41;8.70;98.40
16412;DHT22;8315;52.104;6.304;2023-02-02T14:28:47;8.60;98.40
16412;DHT22;8315;52.104;6.304;2023-02-02T14:34:30;8.60;98.40
16412;DHT22;8315;52.104;6.304;2023-02-02T14:43:05;8.70;98.40
16412;DHT22;8315;52.104;6.304;2023-02-02T14:49:08;8.80;98.40
16412;DHT22;8315;52.104;6.304;2023-02-02T14:51:45;8.80;98.40
16412;DHT22;8315;52.104;6.304;2023-02-02T14:54:18;8.80;98.40
16412;DHT22;8315;52.104;6.304;2023-02-02T14:56:49;8.80;98.40
16412;DHT22;8315;52.104;6.304;2023-02-02T14:59:20;8.70;98.40
16412;DHT22;8315;52.104;6.304;2023-02-02T15:01:52;8.70;98.40
16412;DHT22;8315;52.104;6.304;2023-02-02T15:04:23;8.70;98.40
16412;DHT22;8315;52.104;6.304;2023-02-02T15:06:53;8.80;98.40
16412;DHT22;8315;52.104;6.304;2023-02-02T15:09:36;8.80;98.40
16412;DHT22;8315;52.104;6.304;2023-02-02T15:14:54;8.70;98.40
16412;DHT22;8315;52.104;6.304;2023-02-02T15:17:24;8.70;98.40
16412;DHT22;8315;52.104;6.304;2023-02-02T15:19:57;8.80;98.40
16412;DHT22;8315;52.104;6.304;2023-02-02T15:22:34;8.80;98.40
16412;DHT22;8315;52.104;6.304;2023-02-02T15:25:04;8.80;98.40
16412;DHT22;8315;52.104;6.304;2023-02-02T15:27:38;8.70;98.40
16412;DHT22;8315;52.104;6.304;2023-02-02T15:30:06;8.70;98.40
16412;DHT22;8315;52.104;6.304;2023-02-02T15:32:34;8.70;98.40
16412;DHT22;8315;52.104;6.304;2023-02-02T15:35:02;8.80;98.40
16412;DHT22;8315;52.104;6.304;2023-02-02T15:37:31;8.70;98.40
16412;DHT22;8315;52.104;6.304;2023-02-02T15:40:06;8.70;98.40
16412;DHT22;8315;52.104;6.304;2023-02-02T15:42:37;8.70;98.40
16412;DHT22;8315;52.104;6.304;2023-02-02T15:45:33;8.80;98.40
16412;DHT22;8315;52.104;6.304;2023-02-02T15:48:05;8.80;98.40
16412;DHT22;8315;52.104;6.304;2023-02-02T15:50:34;8.70;98.40
16412;DHT22;8315;52.104;6.304;2023-02-02T15:53:03;8.80;98.40
16412;DHT22;8315;52.104;6.304;2023-02-02T15:55:31;8.80;98.40
16412;DHT22;8315;52.104;6.304;2023-02-02T15:57:59;8.80;98.40
16412;DHT22;8315;52.104;6.304;2023-02-02T16:00:27;8.80;98.40
16412;DHT22;8315;52.104;6.304;2023-02-02T16:02:57;8.80;98.40
16412;DHT22;8315;52.104;6.304;2023-02-02T16:05:38;8.80;98.40
16412;DHT22;8315;52.104;6.304;2023-02-02T16:08:13;8.80;98.40
16412;DHT22;8315;52.104;6.304;2023-02-02T16:10:42;8.80;98.40
16412;DHT22;8315;52.104;6.304;2023-02-02T16:13:16;8.70;98.40
16412;DHT22;8315;52.104;6.304;2023-02-02T16:15:53;8.80;98.40
16412;DHT22;8315;52.104;6.304;2023-02-02T16:18:20;8.80;98.40
16412;DHT22;8315;52.104;6.304;2023-02-02T16:20:47;8.80;98.40
16412;DHT22;8315;52.104;6.304;2023-02-02T16:23:18;8.70;98.40
16412;DHT22;8315;52.104;6.304;2023-02-02T16:25:49;8.80;98.40
16412;DHT22;8315;52.104;6.304;2023-02-02T16:28:17;8.80;98.40
16412;DHT22;8315;52.104;6.304;2023-02-02T16:30:46;8.80;98.40
16412;DHT22;8315;52.104;6.304;2023-02-02T16:33:25;8.80;98.40
16412;DHT22;8315;52.104;6.304;2023-02-02T16:35:53;8.80;98.40
16412;DHT22;8315;52.104;6.304;2023-02-02T16:38:23;8.70;98.40
16412;DHT22;8315;52.104;6.304;2023-02-02T16:41:01;8.70;98.40
16412;DHT22;8315;52.104;6.304;2023-02-02T16:43:29;8.70;98.40
16412;DHT22;8315;52.104;6.304;2023-02-02T16:45:56;8.70;98.40
16412;DHT22;8315;52.104;6.304;2023-02-02T16:48:26;8.70;98.40
16412;DHT22;8315;52.104;6.304;2023-02-02T16:51:01;8.70;98.40
16412;DHT22;8315;52.104;6.304;2023-02-02T16:53:31;8.70;98.40
16412;DHT22;8315;52.104;6.304;2023-02-02T16:55:59;8.70;98.40
16412;DHT22;8315;52.104;6.304;2023-02-02T16:58:25;8.70;98.40
16412;DHT22;8315;52.104;6.304;2023-02-02T17:00:55;8.70;98.40
16412;DHT22;8315;52.104;6.304;2023-02-02T17:03:26;8.70;98.40
16412;DHT22;8315;52.104;6.304;2023-02-02T17:05:56;8.80;98.40